APL Qingdao — 9V9376 — position and weather

sailwx.info

Track history (hours):
 
Tides and Currents Weather Stations Pressure Air Temp Water Temp Dewpoint Dewpoint Depression Visibility Wind Speed Wind Dir Waves Ship Positions

APL Qingdao

Last reported at 2017-Dec-09 02:19 UTC. Time now 2017-Dec-12 04:45 UTC.
Position N 41°41' E 141°43'.

Length 354 m; draft 12.7 m.

Type: Ship (hazmat cat A). MMSI: 566408000.

Date/timePositionNaut miles runAvg speedWind from/ knotsBaromVisibWave heightAir tempDewpointWater temp
2017-Dec-09 02:19N 41°41' E 141°43'515.0
2017-Dec-09 02:00N 41°41' E 141°36'815.7
2017-Dec-09 01:30N 41°39' E 141°26'714.2
2017-Dec-09 01:00N 41°39' E 141°17'713.1
2017-Dec-09 00:30N 41°38' E 141°08'714.9
2017-Dec-09 00:00N 41°38' E 140°58'714.9
2017-Dec-08 23:31N 41°36' E 140°48'714.4
2017-Dec-08 23:01N 41°33' E 140°40'714.1
2017-Dec-08 22:30N 41°29' E 140°32'815.3
2017-Dec-08 22:01N 41°24' E 140°24'816.3
2017-Dec-08 21:30N 41°18' E 140°16'914.9
2017-Dec-08 20:55N 41°12' E 140°08'  
2017-Dec-04 08:32N 31°06' E 122°32'015.7
2017-Dec-04 08:30N 31°06' E 122°32'815.3
2017-Dec-04 08:00N 31°06' E 122°23'714.1
2017-Dec-04 07:29N 31°08' E 122°14'612.5
2017-Dec-04 07:00N 31°12' E 122°09'5 9.5
2017-Dec-04 06:29N 31°14' E 122°04'613.2
2017-Dec-04 06:00N 31°15' E 121°56'814.2
2017-Dec-04 05:28N 31°18' E 121°48'1210.8
2017-Dec-04 04:22N 31°23' E 121°35'1 0.4
2017-Dec-04 02:54N 31°23' E 121°35'0 0.0
2017-Dec-03 16:45N 31°23' E 121°35'0 0.0
2017-Dec-03 16:27N 31°23' E 121°35'0 0.0
2017-Dec-03 14:54N 31°23' E 121°35'0 0.0
2017-Dec-03 14:24N 31°23' E 121°35'0 0.0
2017-Dec-03 13:39N 31°23' E 121°35'0 0.0
2017-Dec-03 12:57N 31°23' E 121°35'0 0.0
2017-Dec-03 11:06N 31°23' E 121°35'0 0.0
2017-Dec-03 10:48N 31°23' E 121°35'0 0.0
2017-Dec-03 10:30N 31°23' E 121°35'0 0.0
2017-Dec-03 08:24N 31°23' E 121°35'0 0.0
2017-Dec-03 05:09N 31°23' E 121°35'0 0.0
2017-Dec-03 04:46N 31°23' E 121°35'0 0.6
2017-Dec-03 04:17N 31°23' E 121°35'0 1.1
2017-Dec-03 03:51N 31°23' E 121°34'0 1.1
2017-Dec-03 03:30N 31°23' E 121°34'3 6.7
2017-Dec-03 03:00N 31°22' E 121°37'5 9.8
2017-Dec-03 02:29N 31°20' E 121°42'510.2
2017-Dec-03 02:00N 31°18' E 121°48'5 9.4
2017-Dec-03 01:30N 31°16' E 121°53'611.5
2017-Dec-03 01:00N 31°15' E 121°60'611.4
2017-Dec-03 00:30N 31°14' E 122°06'510.4
2017-Dec-03 00:00N 31°11' E 122°11'5 9.1
2017-Dec-02 23:30N 31°08' E 122°15'5 9.6
2017-Dec-02 23:00N 31°06' E 122°21'510.6
2017-Dec-02 22:30N 31°06' E 122°27'7 9.8
2017-Dec-02 21:51N 31°09' E 122°34'1 0.1
2017-Dec-02 06:58N 31°09' E 122°35'0 0.3
2017-Dec-02 06:08N 31°09' E 122°35'1 3.4
2017-Dec-02 05:52N 31°09' E 122°36'  
2017-Nov-30 01:02N 24°14' E 118°15'120.1
2017-Nov-30 01:00N 24°15' E 118°15'817.3
2017-Nov-30 00:31N 24°21' E 118°09'713.3
2017-Nov-30 00:00N 24°26' E 118°03'5 9.2
2017-Nov-29 23:30N 24°27' E 117°58'0 0.0
2017-Nov-29 13:12N 24°27' E 117°59'0 0.7
2017-Nov-29 13:01N 24°27' E 117°59'2 3.8
2017-Nov-29 12:31N 24°27' E 118°01'611.8
2017-Nov-29 11:59N 24°24' E 118°07'5 8.7
2017-Nov-29 11:27N 24°20' E 118°10'611.7
2017-Nov-29 10:59N 24°16' E 118°14'2115.9
2017-Nov-29 09:39N 23°55' E 118°12'420.2
2017-Nov-29 09:26N 23°52' E 118°08'  
Track history (hours):
 
Tides and Currents Weather Stations Pressure Air Temp Water Temp Dewpoint Dewpoint Depression Visibility Wind Speed Wind Dir Waves Ship Positions

APL Qingdao

Last reported at 2017-Dec-09 02:19 UTC. Time now 2017-Dec-12 04:45 UTC.
Position N 41°41' E 141°43'.

Length 354 m; draft 12.7 m.

Type: Ship (hazmat cat A). MMSI: 566408000.

Date/timePositionNaut miles runAvg speedWind from/ knotsBaromVisibWave heightAir tempDewpointWater temp
2017-Dec-09 02:19N 41°41' E 141°43'515.0
2017-Dec-09 02:00N 41°41' E 141°36'815.7
2017-Dec-09 01:30N 41°39' E 141°26'714.2
2017-Dec-09 01:00N 41°39' E 141°17'713.1
2017-Dec-09 00:30N 41°38' E 141°08'714.9
2017-Dec-09 00:00N 41°38' E 140°58'714.9
2017-Dec-08 23:31N 41°36' E 140°48'714.4
2017-Dec-08 23:01N 41°33' E 140°40'714.1
2017-Dec-08 22:30N 41°29' E 140°32'815.3
2017-Dec-08 22:01N 41°24' E 140°24'816.3
2017-Dec-08 21:30N 41°18' E 140°16'914.9
2017-Dec-08 20:55N 41°12' E 140°08'  
2017-Dec-04 08:32N 31°06' E 122°32'015.7
2017-Dec-04 08:30N 31°06' E 122°32'815.3
2017-Dec-04 08:00N 31°06' E 122°23'714.1
2017-Dec-04 07:29N 31°08' E 122°14'612.5
2017-Dec-04 07:00N 31°12' E 122°09'5 9.5
2017-Dec-04 06:29N 31°14' E 122°04'613.2
2017-Dec-04 06:00N 31°15' E 121°56'814.2
2017-Dec-04 05:28N 31°18' E 121°48'1210.8
2017-Dec-04 04:22N 31°23' E 121°35'1 0.4
2017-Dec-04 02:54N 31°23' E 121°35'0 0.0
2017-Dec-03 16:45N 31°23' E 121°35'0 0.0
2017-Dec-03 16:27N 31°23' E 121°35'0 0.0
2017-Dec-03 14:54N 31°23' E 121°35'0 0.0
2017-Dec-03 14:24N 31°23' E 121°35'0 0.0
2017-Dec-03 13:39N 31°23' E 121°35'0 0.0
2017-Dec-03 12:57N 31°23' E 121°35'0 0.0
2017-Dec-03 11:06N 31°23' E 121°35'0 0.0
2017-Dec-03 10:48N 31°23' E 121°35'0 0.0
2017-Dec-03 10:30N 31°23' E 121°35'0 0.0
2017-Dec-03 08:24N 31°23' E 121°35'0 0.0
2017-Dec-03 05:09N 31°23' E 121°35'0 0.0
2017-Dec-03 04:46N 31°23' E 121°35'0 0.6
2017-Dec-03 04:17N 31°23' E 121°35'0 1.1
2017-Dec-03 03:51N 31°23' E 121°34'0 1.1
2017-Dec-03 03:30N 31°23' E 121°34'3 6.7
2017-Dec-03 03:00N 31°22' E 121°37'5 9.8
2017-Dec-03 02:29N 31°20' E 121°42'510.2
2017-Dec-03 02:00N 31°18' E 121°48'5 9.4
2017-Dec-03 01:30N 31°16' E 121°53'611.5
2017-Dec-03 01:00N 31°15' E 121°60'611.4
2017-Dec-03 00:30N 31°14' E 122°06'510.4
2017-Dec-03 00:00N 31°11' E 122°11'5 9.1
2017-Dec-02 23:30N 31°08' E 122°15'5 9.6
2017-Dec-02 23:00N 31°06' E 122°21'510.6
2017-Dec-02 22:30N 31°06' E 122°27'7 9.8
2017-Dec-02 21:51N 31°09' E 122°34'1 0.1
2017-Dec-02 06:58N 31°09' E 122°35'0 0.3
2017-Dec-02 06:08N 31°09' E 122°35'1 3.4
2017-Dec-02 05:52N 31°09' E 122°36'  
2017-Nov-30 01:02N 24°14' E 118°15'120.1
2017-Nov-30 01:00N 24°15' E 118°15'817.3
2017-Nov-30 00:31N 24°21' E 118°09'713.3
2017-Nov-30 00:00N 24°26' E 118°03'5 9.2
2017-Nov-29 23:30N 24°27' E 117°58'0 0.0
2017-Nov-29 13:12N 24°27' E 117°59'0 0.7
2017-Nov-29 13:01N 24°27' E 117°59'2 3.8
2017-Nov-29 12:31N 24°27' E 118°01'611.8
2017-Nov-29 11:59N 24°24' E 118°07'5 8.7
2017-Nov-29 11:27N 24°20' E 118°10'611.7
2017-Nov-29 10:59N 24°16' E 118°14'2115.9
2017-Nov-29 09:39N 23°55' E 118°12'420.2
2017-Nov-29 09:26N 23°52' E 118°08'  

Dump ship's entire track history